Time;durP1;ratioP1;P1;durP2;ratioP2;P2;SDS_P1;SDS_P2;PMS_P1;PMS_P2;Temp;Humidity;BMP_temperature;BMP_pressure;BME280_temperature;BME280_humidity;BME280_pressure;Samples;Min_cycle;Max_cycle;Signal;HPM_P1;HPM_P2
2021/01/25 00:02:10;;;;;;;13.93;6.65;;;3.30;90.90;;;3.74;72.42;98797.97;5088818;28;20074;-89
2021/01/25 00:04:39;;;;;;;12.52;6.32;;;3.30;90.90;;;3.77;72.32;98799.44;5089668;28;20036;-88
2021/01/25 00:07:06;;;;;;;13.82;6.25;;;3.30;90.50;;;3.80;72.75;98799.09;5088414;28;20090;-88
2021/01/25 00:09:33;;;;;;;14.73;6.18;;;3.30;90.60;;;3.82;71.96;98797.03;5088958;28;20044;-88
2021/01/25 00:11:59;;;;;;;10.55;5.68;;;3.30;90.70;;;3.76;72.50;98809.38;5089850;28;20045;-89
2021/01/25 00:14:27;;;;;;;11.43;6.25;;;3.30;90.90;;;3.78;72.29;98793.88;5089966;28;20655;-88
2021/01/25 00:16:54;;;;;;;10.90;5.55;;;3.40;90.90;;;3.71;72.29;98798.31;5089507;28;20119;-88
2021/01/25 00:19:20;;;;;;;10.93;5.63;;;3.40;90.50;;;3.71;72.54;98806.38;5089693;28;20044;-88
2021/01/25 00:21:47;;;;;;;11.35;5.53;;;3.40;90.40;;;3.70;73.15;98802.88;5089411;28;20042;-88
2021/01/25 00:24:14;;;;;;;10.52;5.00;;;3.40;90.40;;;3.72;72.58;98795.44;5089291;28;20467;-88
2021/01/25 00:26:41;;;;;;;10.45;5.28;;;3.40;90.40;;;3.75;72.76;98796.09;5089511;28;20059;-89
2021/01/25 00:29:07;;;;;;;13.38;5.68;;;3.40;90.30;;;3.81;72.98;98801.59;5089462;28;20548;-88
2021/01/25 00:31:35;;;;;;;9.18;5.10;;;3.40;90.40;;;3.83;72.50;98802.25;5089264;28;20127;-88
2021/01/25 00:34:02;;;;;;;11.63;5.57;;;3.30;90.50;;;3.79;72.54;98803.63;5077708;28;20480;-88
2021/01/25 00:36:28;;;;;;;8.02;4.95;;;3.40;90.40;;;3.80;72.60;98797.22;5075382;28;20554;-88
2021/01/25 00:38:55;;;;;;;14.13;5.60;;;3.40;90.40;;;3.80;72.42;98804.47;5074191;28;20143;-88
2021/01/25 00:41:22;;;;;;;12.40;5.07;;;3.40;90.50;;;3.80;72.13;98799.91;5075647;28;20067;-88
2021/01/25 00:43:49;;;;;;;12.65;5.03;;;3.40;90.40;;;3.79;72.78;98803.63;5075504;28;20071;-88
2021/01/25 00:46:15;;;;;;;13.65;5.30;;;3.40;90.60;;;3.81;72.80;98804.28;5075491;28;20060;-88
2021/01/25 00:48:43;;;;;;;10.32;5.05;;;3.40;90.90;;;3.76;72.37;98795.91;5075301;28;20074;-88
2021/01/25 00:51:10;;;;;;;11.60;5.10;;;3.40;90.40;;;3.78;72.37;98804.66;5075188;28;20075;-88
2021/01/25 00:53:37;;;;;;;9.30;4.95;;;3.50;90.20;;;3.81;73.13;98798.91;5067559;28;20052;-88
2021/01/25 00:56:04;;;;;;;11.90;5.22;;;3.50;90.10;;;3.85;72.24;98802.91;5055479;28;20495;-88
2021/01/25 00:58:32;;;;;;;12.05;5.25;;;3.50;90.30;;;3.90;72.61;98799.66;5054039;28;20052;-88
2021/01/25 01:00:59;;;;;;;12.38;5.57;;;3.50;90.30;;;3.91;72.27;98798.63;5053673;28;20489;-88
2021/01/25 01:03:25;;;;;;;9.57;5.25;;;3.50;90.30;;;3.91;72.92;98793.25;5054092;28;20103;-88
2021/01/25 01:05:53;;;;;;;10.07;5.45;;;3.50;90.40;;;3.89;72.17;98798.00;5053639;28;20139;-88
2021/01/25 01:08:20;;;;;;;8.70;5.15;;;3.50;90.00;;;3.90;72.23;98792.44;5055164;28;20045;-88
2021/01/25 01:10:47;;;;;;;10.25;5.55;;;3.50;90.10;;;3.89;72.37;98790.75;5055038;28;20041;-88
2021/01/25 01:13:14;;;;;;;10.07;5.25;;;3.50;90.20;;;3.90;72.50;98791.56;5055194;28;20560;-88
2021/01/25 01:15:40;;;;;;;10.57;5.30;;;3.50;90.10;;;3.89;71.99;98798.81;5057374;28;20118;-88
2021/01/25 01:18:07;;;;;;;9.98;5.35;;;3.50;89.50;;;3.88;72.03;98799.84;5074519;28;20036;-88
2021/01/25 01:20:34;;;;;;;11.70;5.55;;;3.50;89.70;;;3.88;71.86;98794.47;5074391;28;20075;-88
2021/01/25 01:23:01;;;;;;;10.45;5.10;;;3.50;89.70;;;3.84;71.65;98793.13;5074827;28;20039;-88
2021/01/25 01:25:28;;;;;;;8.75;5.03;;;3.60;89.70;;;3.90;72.12;98795.13;5074558;28;20493;-88
2021/01/25 01:27:55;;;;;;;10.07;5.50;;;3.50;89.60;;;3.90;71.50;98803.19;5074224;28;20468;-88
2021/01/25 01:30:22;;;;;;;12.75;5.38;;;3.50;89.90;;;3.87;72.14;98798.16;5065306;28;20475;-88
2021/01/25 01:32:49;;;;;;;9.57;5.60;;;3.50;89.70;;;3.89;72.54;98801.50;5073892;28;20776;-88
2021/01/25 01:35:16;;;;;;;10.02;5.10;;;3.50;89.80;;;3.92;72.43;98795.78;5073446;28;20076;-88
2021/01/25 01:37:42;;;;;;;10.48;5.20;;;3.50;89.80;;;3.88;71.95;98796.31;5072905;28;20094;-88
2021/01/25 01:40:13;;;;;;;13.52;5.65;;;3.60;90.10;;;3.83;72.10;98799.56;5073761;28;20068;-88
2021/01/25 01:42:41;;;;;;;10.30;5.30;;;3.50;90.00;;;3.84;72.39;98798.53;5074271;28;20064;-88
2021/01/25 01:45:10;;;;;;;9.65;5.32;;;3.40;90.00;;;3.84;72.11;98798.53;5073312;28;20060;-88
2021/01/25 01:47:40;;;;;;;10.38;5.03;;;3.50;89.80;;;3.81;72.13;98792.66;5072666;28;20147;-88
2021/01/25 01:50:09;;;;;;;10.98;5.03;;;3.50;89.80;;;3.83;71.87;98796.03;5074473;28;20040;-88
2021/01/25 01:52:36;;;;;;;9.25;5.35;;;3.50;89.60;;;3.86;72.08;98791.09;5074234;28;20060;-88
2021/01/25 01:55:04;;;;;;;10.45;5.10;;;3.40;90.00;;;3.81;72.52;98798.91;5072880;28;20049;-88
2021/01/25 01:57:34;;;;;;;11.70;5.78;;;3.50;90.20;;;3.79;72.42;98795.56;5073540;28;20056;-88
2021/01/25 02:00:02;;;;;;;11.02;5.22;;;3.50;90.00;;;3.87;72.10;98795.47;5073672;28;20465;-88
2021/01/25 02:02:28;;;;;;;8.82;5.10;;;3.50;89.50;;;3.87;72.22;98790.09;5073820;28;20416;-88
2021/01/25 02:04:55;;;;;;;10.45;4.90;;;3.50;89.90;;;3.89;71.86;98793.44;5072858;28;20158;-88
2021/01/25 02:07:22;;;;;;;8.13;4.95;;;3.50;89.50;;;3.88;71.71;98794.47;5073927;28;20122;-88
2021/01/25 02:09:50;;;;;;;8.93;5.18;;;3.40;89.20;;;3.84;71.27;98797.69;5073922;28;20044;-88
2021/01/25 02:12:20;;;;;;;10.65;4.95;;;3.40;89.50;;;3.82;72.19;98795.19;5072286;28;20139;-88
2021/01/25 02:14:49;;;;;;;7.93;4.55;;;3.50;89.90;;;3.83;71.59;98796.03;5073725;28;20064;-88
2021/01/25 02:17:17;;;;;;;8.45;5.00;;;3.50;89.60;;;3.79;71.53;98803.63;5073285;28;20501;-88
2021/01/25 02:19:54;;;;;;;13.13;5.03;;;3.50;89.50;;;3.81;72.64;98808.81;5073518;28;20679;-88
2021/01/25 02:23:03;;;;;;;9.57;5.07;;;3.50;90.00;;;3.81;72.34;98806.13;5071992;28;20578;-88
2021/01/25 02:25:51;;;;;;;10.38;4.72;;;3.40;89.60;;;3.78;71.95;98809.19;5064397;28;20090;-88
2021/01/25 02:28:19;;;;;;;10.15;4.78;;;3.50;89.50;;;3.81;72.34;98798.91;5073486;28;20453;-88
2021/01/25 02:30:47;;;;;;;9.52;4.65;;;3.50;89.50;;;3.82;72.00;98810.50;5073025;28;20130;-88
2021/01/25 02:33:16;;;;;;;11.73;5.03;;;3.50;89.50;;;3.82;72.44;98811.31;5073225;28;20075;-88
2021/01/25 02:35:44;;;;;;;11.63;5.07;;;3.50;89.60;;;3.82;71.79;98815.88;5072686;28;20128;-88
2021/01/25 02:38:14;;;;;;;7.47;4.13;;;3.50;89.70;;;3.79;71.77;98811.72;5072852;28;20568;-88
2021/01/25 02:40:42;;;;;;;9.40;4.78;;;3.50;89.20;;;3.84;72.71;98809.28;5071871;28;20146;-88
2021/01/25 02:43:11;;;;;;;16.13;4.82;;;3.40;89.70;;;3.82;72.38;98811.31;5071572;28;20052;-88
2021/01/25 02:45:40;;;;;;;11.30;4.72;;;3.50;89.70;;;3.85;72.05;98813.66;5072788;28;20040;-88
2021/01/25 02:48:08;;;;;;;11.30;4.93;;;3.50;89.90;;;3.90;72.05;98808.56;5073035;28;20075;-88
2021/01/25 02:50:35;;;;;;;10.30;4.68;;;3.50;90.30;;;3.87;72.10;98814.31;5073306;28;20062;-88
2021/01/25 02:53:02;;;;;;;10.02;5.03;;;3.40;90.20;;;3.82;72.70;98808.63;5072787;28;20075;-88
2021/01/25 02:55:31;;;;;;;12.45;4.85;;;3.50;90.30;;;3.80;71.90;98813.38;5072585;28;20067;-88
2021/01/25 02:57:58;;;;;;;10.18;4.85;;;3.40;89.60;;;3.84;72.25;98814.66;5072717;28;20073;-88
2021/01/25 03:00:25;;;;;;;13.15;5.03;;;3.50;89.80;;;3.77;72.54;98813.75;5071534;28;20262;-88
2021/01/25 03:02:54;;;;;;;10.18;4.38;;;3.50;90.10;;;3.81;71.99;98819.56;5073035;28;20139;-88
2021/01/25 03:05:21;;;;;;;10.40;4.60;;;3.50;89.50;;;3.77;72.12;98813.75;5071784;28;20055;-88
2021/01/25 03:07:51;;;;;;;8.02;4.50;;;3.50;89.70;;;3.74;72.04;98818.66;5072580;28;20507;-88
2021/01/25 03:10:18;;;;;;;8.93;4.65;;;3.60;89.00;;;3.82;72.09;98811.31;5072738;28;20064;-88
2021/01/25 03:12:45;;;;;;;9.25;4.30;;;3.50;89.60;;;3.88;72.08;98818.69;5072492;28;20044;-88
2021/01/25 03:15:17;;;;;;;10.88;4.13;;;3.50;89.90;;;3.89;71.38;98817.66;5071111;28;20491;-88
2021/01/25 03:17:44;;;;;;;8.90;4.53;;;3.50;89.40;;;3.91;72.58;98822.84;5072265;28;20056;-88
2021/01/25 03:20:12;;;;;;;9.55;4.47;;;3.50;89.90;;;3.92;72.74;98824.50;5067761;28;20464;-88
2021/01/25 03:22:39;;;;;;;7.18;4.00;;;3.50;90.30;;;3.90;72.11;98824.72;5065872;28;20041;-88
2021/01/25 03:25:08;;;;;;;8.82;3.90;;;3.60;90.50;;;3.94;72.16;98824.34;5052221;28;20123;-88
2021/01/25 03:27:34;;;;;;;9.30;4.43;;;3.50;90.40;;;3.97;72.35;98818.59;5051092;28;20593;-88
2021/01/25 03:30:01;;;;;;;9.90;4.18;;;3.50;90.40;;;3.92;72.60;98828.06;5052756;28;20208;-88
2021/01/25 03:32:28;;;;;;;8.07;3.97;;;3.50;90.40;;;3.82;71.92;98822.09;5053593;28;20151;-88
2021/01/25 03:34:55;;;;;;;10.05;4.35;;;3.50;90.00;;;3.81;72.04;98820.44;5068517;28;20521;-88
2021/01/25 03:37:22;;;;;;;7.82;3.97;;;3.50;89.90;;;3.85;72.85;98823.59;5063257;28;20072;-88
2021/01/25 03:39:49;;;;;;;8.07;4.15;;;3.50;90.10;;;3.90;72.06;98829.25;5071503;28;20499;-88
2021/01/25 03:42:16;;;;;;;6.95;3.78;;;3.50;90.30;;;3.83;71.98;98829.16;5072448;28;20076;-88
2021/01/25 03:44:42;;;;;;;8.45;4.38;;;3.50;90.00;;;3.83;72.49;98834.53;5071435;28;20063;-88
2021/01/25 03:47:09;;;;;;;7.60;4.43;;;3.50;90.30;;;3.81;72.77;98835.72;5070838;28;20516;-88
2021/01/25 03:49:36;;;;;;;9.32;4.47;;;3.50;90.30;;;3.84;72.85;98836.19;5071357;28;20118;-88
2021/01/25 03:52:03;;;;;;;10.05;4.22;;;3.50;90.40;;;3.88;72.97;98844.75;5071309;28;20041;-88
2021/01/25 03:54:30;;;;;;;7.30;4.18;;;3.50;90.80;;;3.86;72.74;98836.84;5070954;28;20084;-88
2021/01/25 03:56:57;;;;;;;7.63;3.95;;;3.50;90.80;;;3.79;71.86;98844.00;5071992;28;20056;-88
2021/01/25 03:59:24;;;;;;;9.95;4.85;;;3.50;90.70;;;3.83;72.58;98845.31;5072151;28;20046;-88
2021/01/25 04:01:51;;;;;;;10.35;4.60;;;3.50;90.20;;;3.79;72.36;98837.75;5072465;28;20071;-88
2021/01/25 04:04:18;;;;;;;7.30;3.90;;;3.50;90.00;;;3.76;72.97;98841.66;5072347;28;20079;-88
2021/01/25 04:06:44;;;;;;;9.40;4.00;;;3.50;90.20;;;3.75;72.74;98844.53;5071855;28;20052;-88
2021/01/25 04:09:11;;;;;;;8.95;4.15;;;3.50;90.10;;;3.78;73.27;98842.31;5073477;28;20131;-88
2021/01/25 04:11:39;;;;;;;8.20;4.18;;;3.50;90.30;;;3.82;72.59;98849.00;5076004;28;20739;-88
2021/01/25 04:14:06;;;;;;;9.68;5.10;;;3.50;90.50;;;3.89;72.41;98844.56;5076229;28;20135;-88
2021/01/25 04:16:32;;;;;;;9.60;4.40;;;3.40;90.40;;;3.89;72.90;98849.94;5075768;28;20071;-88
2021/01/25 04:18:59;;;;;;;9.57;4.65;;;3.40;90.70;;;3.86;72.81;98852.16;5076162;28;20075;-88
2021/01/25 04:21:26;;;;;;;9.68;5.10;;;3.40;90.50;;;3.84;72.91;98856.88;5075492;28;20080;-88
2021/01/25 04:23:53;;;;;;;7.88;4.30;;;3.40;90.60;;;3.83;72.57;98856.06;5075396;28;20496;-88
2021/01/25 04:26:19;;;;;;;10.68;4.60;;;3.40;90.60;;;3.79;72.57;98859.28;5075098;28;20048;-88
2021/01/25 04:28:47;;;;;;;10.40;4.82;;;3.50;90.30;;;3.68;72.45;98858.72;5075520;28;20036;-88
2021/01/25 04:31:14;;;;;;;8.43;4.72;;;3.40;90.00;;;3.70;72.61;98856.69;5074382;28;20135;-88
2021/01/25 04:33:41;;;;;;;9.35;4.55;;;3.40;90.20;;;3.78;73.16;98863.84;5075404;28;20454;-88
2021/01/25 04:36:09;;;;;;;10.50;4.68;;;3.40;90.50;;;3.79;72.94;98860.16;5075192;28;20119;-88
2021/01/25 04:38:36;;;;;;;10.70;4.93;;;3.40;90.90;;;3.78;72.58;98863.84;5075442;28;20044;-88
2021/01/25 04:41:03;;;;;;;11.02;4.78;;;3.30;90.80;;;3.74;73.14;98862.53;5075381;28;20052;-88
2021/01/25 04:43:31;;;;;;;10.45;5.20;;;3.30;90.90;;;3.82;73.01;98864.31;5074060;28;20131;-88
2021/01/25 04:45:59;;;;;;;9.10;4.65;;;3.30;90.90;;;3.73;72.58;98863.53;5075241;28;20509;-88
2021/01/25 04:48:27;;;;;;;14.55;5.07;;;3.30;90.90;;;3.72;72.95;98870.78;5075042;28;20037;-88
2021/01/25 04:50:55;;;;;;;9.05;4.70;;;3.30;90.90;;;3.70;72.78;98870.13;5073871;28;20147;-88
2021/01/25 04:53:22;;;;;;;11.55;5.05;;;3.30;90.50;;;3.78;72.85;98869.22;5075039;28;20099;-88
2021/01/25 04:55:50;;;;;;;11.38;5.07;;;3.30;90.90;;;3.84;72.40;98873.88;5074640;28;20076;-88
2021/01/25 04:58:18;;;;;;;11.55;5.10;;;3.40;90.90;;;3.76;72.71;98871.25;5074939;28;20055;-88
2021/01/25 05:00:45;;;;;;;9.40;5.35;;;3.20;90.70;;;3.71;72.58;98874.50;5054818;28;20041;-88
2021/01/25 05:03:13;;;;;;;14.23;5.00;;;3.20;90.80;;;3.68;72.33;98876.72;5055164;28;20460;-88
2021/01/25 05:05:39;;;;;;;11.77;4.93;;;3.30;90.70;;;3.59;72.63;98883.16;5054615;28;20068;-88
2021/01/25 05:08:06;;;;;;;8.95;4.88;;;3.30;90.50;;;3.58;72.90;98878.78;5054750;28;20063;-88
2021/01/25 05:10:33;;;;;;;9.30;4.50;;;3.30;90.20;;;3.55;73.21;98889.94;5054794;28;20120;-88
2021/01/25 05:13:00;;;;;;;10.07;4.57;;;3.30;90.10;;;3.64;72.94;98894.25;5054512;28;20036;-88
2021/01/25 05:15:29;;;;;;;8.30;4.63;;;3.30;90.40;;;3.64;72.54;98899.63;5054152;28;20079;-88
2021/01/25 05:18:00;;;;;;;8.52;4.47;;;3.30;90.20;;;3.63;72.85;98897.94;5054513;28;20128;-87
2021/01/25 05:20:29;;;;;;;9.25;4.90;;;3.30;90.20;;;3.48;72.75;98906.78;5073228;28;20123;-88
2021/01/25 05:22:58;;;;;;;9.88;4.85;;;3.30;89.90;;;3.63;72.37;98908.69;5074443;28;20421;-87
2021/01/25 05:25:29;;;;;;;9.48;4.53;;;3.30;90.00;;;3.69;72.87;98916.03;5073872;28;20879;-88
2021/01/25 05:27:57;;;;;;;8.98;4.55;;;3.20;90.10;;;3.63;72.39;98919.44;5073957;28;20033;-88
2021/01/25 05:30:25;;;;;;;10.18;4.78;;;3.20;90.30;;;3.62;72.29;98917.78;5074915;28;20044;-86
2021/01/25 05:32:55;;;;;;;10.85;4.65;;;3.10;90.50;;;3.61;73.15;98922.31;5074961;28;20047;-87
2021/01/25 05:35:25;;;;;;;9.13;5.63;;;3.10;90.70;;;3.54;73.01;98921.34;5071873;28;20071;-88
2021/01/25 05:37:55;;;;;;;10.93;5.28;;;3.20;90.80;;;3.49;73.01;98927.28;5073232;28;20056;-88
2021/01/25 05:40:23;;;;;;;11.05;4.82;;;3.10;90.80;;;3.57;72.71;98936.31;5071858;28;20041;-88
2021/01/25 05:42:51;;;;;;;9.77;4.63;;;3.20;90.60;;;3.64;72.85;98921.13;5072205;28;20469;-88
2021/01/25 05:45:20;;;;;;;9.20;4.80;;;3.20;90.80;;;3.63;72.38;98928.34;5072840;28;20476;-88
2021/01/25 05:47:50;;;;;;;8.43;4.93;;;3.20;90.80;;;3.61;72.49;98926.88;5073333;28;20082;-88
2021/01/25 05:50:32;;;;;;;9.77;5.73;;;3.20;90.70;;;3.61;72.77;98929.56;5072219;28;20044;-88
2021/01/25 05:53:00;;;;;;;;;;;3.20;90.80;;;3.53;72.43;98927.75;5073751;28;20044;-88
2021/01/25 05:55:28;;;;;;;10.23;5.20;;;3.30;90.70;;;3.48;72.70;98928.31;5073045;28;20023;-89
2021/01/25 05:57:55;;;;;;;7.90;4.93;;;3.20;90.30;;;3.56;73.58;98943.56;5072857;28;20493;-88
2021/01/25 06:00:24;;;;;;;9.55;5.00;;;3.20;90.80;;;3.61;73.50;98938.44;5073037;28;20047;-88
2021/01/25 06:02:52;;;;;;;8.82;5.38;;;3.20;90.80;;;3.48;73.34;98944.44;5071639;28;20053;-87
2021/01/25 06:05:29;;;;;;;10.45;5.38;;;3.20;90.80;;;3.55;74.15;98943.72;5072602;28;20508;-88
2021/01/25 06:08:07;;;;;;;13.88;5.80;;;3.20;91.30;;;3.58;73.81;98943.34;5071764;28;20040;-88
2021/01/25 06:10:45;;;;;;;11.10;5.63;;;3.20;91.40;;;3.58;73.78;98946.03;5071846;28;20156;-88
2021/01/25 06:13:18;;;;;;;14.02;5.95;;;3.20;91.10;;;3.60;73.68;98950.25;5071245;28;20044;-88
2021/01/25 06:15:49;;;;;;;10.90;5.85;;;3.20;91.30;;;3.61;73.87;98948.38;5070933;28;20049;-89
2021/01/25 06:18:19;;;;;;;12.40;5.97;;;3.20;91.20;;;3.64;73.77;98956.09;5072432;28;20744;-88
2021/01/25 06:20:48;;;;;;;10.60;6.35;;;3.30;91.30;;;3.66;73.63;98952.22;5071384;28;20152;-88
2021/01/25 06:23:17;;;;;;;10.43;6.40;;;3.30;91.10;;;3.63;73.54;98957.94;5071286;28;20048;-88
2021/01/25 06:25:45;;;;;;;12.90;6.57;;;3.30;91.10;;;3.62;73.48;98963.53;5064849;28;20504;-89
2021/01/25 06:28:15;;;;;;;11.35;6.68;;;3.30;91.10;;;3.62;73.63;98966.22;5068385;28;20064;-88
2021/01/25 06:30:44;;;;;;;12.40;6.60;;;3.30;90.90;;;3.66;73.07;98970.22;5071680;28;20044;-88
2021/01/25 06:33:15;;;;;;;12.05;6.57;;;3.30;91.00;;;3.63;73.51;98975.94;5072451;28;20061;-88
2021/01/25 06:35:46;;;;;;;11.90;6.85;;;3.30;91.00;;;3.61;73.09;98983.34;5072132;28;20489;-88
2021/01/25 06:38:19;;;;;;;16.23;7.00;;;3.30;91.00;;;3.59;73.23;98988.06;5071043;28;20083;-88
2021/01/25 06:40:48;;;;;;;12.73;7.00;;;3.30;91.00;;;3.62;73.27;98993.13;5071050;28;20053;-88
2021/01/25 06:43:18;;;;;;;11.50;6.40;;;3.20;90.80;;;3.57;73.54;98990.09;5073019;28;20450;-86
2021/01/25 06:45:47;;;;;;;14.52;7.10;;;3.20;90.80;;;3.66;73.40;98994.44;5073383;28;20060;-88
2021/01/25 06:48:16;;;;;;;12.18;6.85;;;3.20;90.90;;;3.73;73.05;99006.13;5072073;28;20068;-88
2021/01/25 06:50:46;;;;;;;13.48;7.18;;;3.20;91.20;;;3.66;73.01;99003.31;5072235;28;20397;-88
2021/01/25 06:53:14;;;;;;;10.75;6.75;;;3.20;91.30;;;3.65;73.22;99009.72;5070985;28;20512;-85
2021/01/25 06:55:44;;;;;;;12.45;6.90;;;3.20;91.50;;;3.70;73.55;99011.88;5071718;28;20175;-86
2021/01/25 06:58:12;;;;;;;14.40;7.40;;;3.20;91.50;;;3.67;73.01;99010.38;5071806;28;20360;-85
2021/01/25 07:00:40;;;;;;;12.25;7.30;;;3.20;91.30;;;3.65;72.89;99031.22;5072095;28;20135;-86
2021/01/25 07:03:08;;;;;;;12.07;7.15;;;3.20;91.30;;;3.57;74.23;99038.53;5071943;28;20040;-85
2021/01/25 07:05:37;;;;;;;14.10;7.07;;;3.10;91.70;;;3.65;73.87;99039.31;5071720;28;20048;-85
2021/01/25 07:08:22;;;;;;;12.60;6.65;;;3.10;92.00;;;3.71;73.53;99043.13;5066828;28;20060;-85
2021/01/25 07:10:58;;;;;;;13.55;8.40;;;3.10;92.00;;;3.72;73.80;99045.66;5074432;28;20040;-84
2021/01/25 07:13:26;;;;;;;14.73;8.20;;;3.10;92.00;;;3.77;73.24;99053.22;5069538;28;20512;-85
2021/01/25 07:15:54;;;;;;;15.45;7.85;;;3.20;91.90;;;3.69;73.38;99054.09;5073220;28;20224;-85
2021/01/25 07:18:22;;;;;;;13.48;7.97;;;3.20;91.90;;;3.60;73.81;99054.28;5072437;28;20044;-85
2021/01/25 07:20:51;;;;;;;15.90;8.57;;;3.20;91.80;;;3.63;74.14;99059.34;5072849;28;20044;-86
2021/01/25 07:23:20;;;;;;;16.60;9.05;;;3.20;92.00;;;3.58;74.41;99061.69;5072823;28;20668;-86
2021/01/25 07:25:54;;;;;;;19.23;10.45;;;3.20;92.00;;;3.68;73.68;99059.66;5072625;28;20041;-85
2021/01/25 07:28:23;;;;;;;15.90;9.75;;;3.20;91.80;;;3.67;73.68;99066.03;5071833;28;20048;-86
2021/01/25 07:30:51;;;;;;;19.95;9.55;;;3.20;91.80;;;3.65;73.76;99070.75;5073167;28;20075;-86
2021/01/25 07:33:19;;;;;;;14.38;9.07;;;3.20;92.00;;;3.58;74.31;99086.78;5072185;28;20040;-86
2021/01/25 07:35:46;;;;;;;15.68;9.15;;;3.20;92.10;;;3.64;74.67;99088.75;5071959;28;20532;-86
2021/01/25 07:38:13;;;;;;;15.23;8.73;;;3.20;92.20;;;3.68;74.45;99083.88;5072723;28;20135;-86
2021/01/25 07:40:40;;;;;;;19.58;9.48;;;3.20;92.40;;;3.66;74.38;99092.09;5072145;28;20044;-86
2021/01/25 07:43:07;;;;;;;17.55;9.23;;;3.20;92.40;;;3.60;74.16;99100.03;5073138;28;20040;-86
2021/01/25 07:45:35;;;;;;;18.20;10.00;;;3.20;92.20;;;3.52;74.84;99096.38;5077715;28;20044;-85
2021/01/25 07:48:02;;;;;;;16.55;8.90;;;3.20;92.20;;;3.60;74.41;99103.56;5078004;28;20090;-85
2021/01/25 07:50:29;;;;;;;18.80;9.77;;;3.20;91.90;;;3.64;73.80;99110.28;5077126;28;20055;-85
2021/01/25 07:53:00;;;;;;;16.73;10.00;;;3.30;92.00;;;3.70;74.23;99114.13;5076702;28;20051;-85
2021/01/25 07:55:28;;;;;;;15.32;9.43;;;3.30;91.90;;;3.69;73.56;99118.66;5076476;28;20041;-85
2021/01/25 07:58:05;;;;;;;16.63;10.15;;;3.30;91.90;;;3.67;74.20;99130.59;5076272;28;20045;-84
2021/01/25 08:00:32;;;;;;;17.73;10.05;;;3.30;91.80;;;3.66;73.64;99124.38;5078101;28;20055;-85
2021/01/25 08:03:08;;;;;;;17.73;11.02;;;3.30;91.80;;;3.65;73.79;99128.09;5079967;28;20095;-85
2021/01/25 08:05:35;;;;;;;18.58;10.20;;;3.30;91.60;;;3.68;74.27;99134.97;5078489;28;20101;-85
2021/01/25 08:08:05;;;;;;;19.83;10.80;;;3.30;91.70;;;3.68;73.80;99137.69;5077686;28;20381;-85
2021/01/25 08:10:32;;;;;;;21.83;11.02;;;3.40;91.60;;;3.71;74.01;99143.56;5079235;28;20044;-85
2021/01/25 08:13:02;;;;;;;17.73;10.50;;;3.30;91.60;;;3.76;73.84;99145.69;5078231;28;20568;-88
2021/01/25 08:15:34;;;;;;;18.58;10.40;;;3.40;91.70;;;3.74;74.24;99144.22;5078152;28;20048;-85
2021/01/25 08:18:06;;;;;;;20.40;10.95;;;3.30;91.80;;;3.70;73.95;99151.78;5078315;28;20052;-85
2021/01/25 08:20:39;;;;;;;19.55;11.00;;;3.40;91.80;;;3.73;73.98;99156.81;5074671;28;20053;-86
2021/01/25 08:23:17;;;;;;;19.75;11.82;;;3.40;91.80;;;3.75;74.27;99162.88;5074827;28;20044;-86
2021/01/25 08:25:52;;;;;;;21.13;11.05;;;3.40;91.60;;;3.72;74.02;99161.34;5074470;28;20055;-85
2021/01/25 08:28:23;;;;;;;17.45;10.55;;;3.40;91.50;;;3.81;73.75;99178.31;5074935;28;20106;-86
2021/01/25 08:30:52;;;;;;;18.70;11.00;;;3.40;92.10;;;3.82;74.47;99176.47;5075580;28;20044;-85
2021/01/25 08:33:33;;;;;;;18.33;10.95;;;3.40;92.20;;;3.82;74.46;99179.16;5074673;28;20040;-85
2021/01/25 08:36:03;;;;;;;18.97;11.17;;;3.40;92.20;;;3.76;74.26;99175.31;5074376;28;20048;-85
2021/01/25 08:38:33;;;;;;;20.80;11.90;;;3.40;92.20;;;3.83;74.15;99181.66;5076191;28;20135;-85
2021/01/25 08:41:13;;;;;;;24.83;12.05;;;3.40;92.30;;;3.89;73.97;99189.03;5076518;28;20068;-87
2021/01/25 08:43:41;;;;;;;22.73;12.10;;;3.40;92.10;;;3.80;74.37;99184.69;5075470;28;20044;-86
2021/01/25 08:46:12;;;;;;;21.45;11.25;;;3.40;91.90;;;3.84;74.50;99191.41;5070247;28;20040;-84
2021/01/25 08:48:40;;;;;;;22.45;12.70;;;3.40;92.20;;;3.89;74.17;99193.59;5075978;28;20033;-85
2021/01/25 08:51:13;;;;;;;21.27;12.07;;;3.50;91.70;;;3.91;73.79;99195.09;5073143;28;20477;-85
2021/01/25 08:53:40;;;;;;;26.58;12.35;;;3.50;91.90;;;3.88;74.09;99198.16;5073661;28;20572;-85
2021/01/25 08:56:19;;;;;;;21.17;12.48;;;3.50;92.00;;;3.92;73.94;99204.84;5066685;28;20489;-85
2021/01/25 08:58:46;;;;;;;22.88;12.80;;;3.50;91.80;;;3.85;73.97;99211.94;5072896;28;20052;-84
2021/01/25 09:01:17;;;;;;;22.40;12.80;;;3.70;91.60;;;3.87;74.26;99207.22;5076952;28;20064;-85
2021/01/25 09:03:44;;;;;;;21.95;12.57;;;3.60;91.30;;;3.87;73.99;99215.28;5076562;28;20079;-85
2021/01/25 09:06:12;;;;;;;23.00;12.93;;;3.60;91.40;;;3.87;74.44;99219.84;5067897;28;20048;-85
2021/01/25 09:08:40;;;;;;;22.70;13.25;;;3.60;91.40;;;3.84;73.88;99218.31;5068373;28;20041;-86
2021/01/25 09:11:07;;;;;;;23.70;12.70;;;3.60;91.40;;;3.90;74.43;99217.66;5076075;28;20059;-85
2021/01/25 09:13:34;;;;;;;24.38;12.60;;;3.60;91.40;;;3.88;74.06;99225.06;5075712;28;20035;-86
2021/01/25 09:16:01;;;;;;;27.13;12.60;;;3.70;91.50;;;3.90;74.33;99224.84;5075903;28;20052;-86
2021/01/25 09:18:30;;;;;;;25.02;13.23;;;3.70;91.30;;;3.97;74.04;99233.94;5075833;28;20102;-87
2021/01/25 09:20:57;;;;;;;25.30;12.90;;;3.70;91.50;;;3.90;73.89;99239.19;5073317;28;20044;-86
2021/01/25 09:23:24;;;;;;;19.80;12.70;;;3.70;91.20;;;3.95;74.38;99240.50;5071829;28;20036;-85
2021/01/25 09:25:51;;;;;;;22.25;12.98;;;3.70;91.10;;;3.98;74.31;99256.28;5076646;28;20098;-86
2021/01/25 09:28:18;;;;;;;28.00;14.55;;;3.80;91.10;;;4.06;73.69;99245.50;5068799;28;20049;-85
2021/01/25 09:30:44;;;;;;;23.52;13.40;;;3.80;90.90;;;3.97;73.93;99249.25;5077874;28;20083;-85
2021/01/25 09:33:11;;;;;;;23.30;13.95;;;3.80;90.70;;;3.96;74.45;99266.38;5067210;28;20052;-85
2021/01/25 09:35:39;;;;;;;22.45;13.45;;;3.80;91.00;;;4.02;74.56;99260.34;5058537;28;20052;-85
2021/01/25 09:38:06;;;;;;;21.95;12.98;;;4.00;91.40;;;4.04;74.82;99271.78;5062530;28;20055;-84
2021/01/25 09:40:34;;;;;;;26.52;13.52;;;3.80;91.40;;;4.07;74.67;99271.41;5079802;28;20044;-85
2021/01/25 09:43:01;;;;;;;23.05;13.10;;;3.80;91.20;;;4.11;74.10;99268.22;5079349;28;20041;-84
2021/01/25 09:45:28;;;;;;;22.33;14.25;;;3.80;91.60;;;4.08;74.66;99267.72;5063048;28;20040;-85
2021/01/25 09:47:56;;;;;;;25.35;13.55;;;3.90;91.80;;;4.07;74.45;99271.41;5062989;28;20049;-84
2021/01/25 09:50:23;;;;;;;26.15;14.10;;;3.90;91.20;;;4.05;74.45;99271.56;5074867;28;20102;-84
2021/01/25 09:52:54;;;;;;;22.83;12.68;;;3.90;91.10;;;4.09;73.85;99282.84;5076929;28;20047;-84
2021/01/25 09:55:21;;;;;;;22.15;11.80;;;4.00;90.50;;;4.08;73.99;99284.69;5079096;28;20676;-84
2021/01/25 09:57:47;;;;;;;23.02;13.00;;;4.00;90.10;;;4.10;73.96;99295.31;5065167;28;20433;-85
2021/01/25 10:00:16;;;;;;;26.33;13.55;;;4.00;90.30;;;4.18;73.98;99300.66;5068338;28;20119;-85
2021/01/25 10:02:43;;;;;;;22.40;12.35;;;4.00;91.00;;;4.22;73.47;99301.16;5061738;28;20110;-85
2021/01/25 10:05:12;;;;;;;20.90;12.45;;;4.00;90.70;;;4.22;72.65;99301.16;5057337;28;20045;-84
2021/01/25 10:07:39;;;;;;;24.73;12.85;;;4.00;89.70;;;4.21;73.59;99308.41;5067075;28;20052;-85
2021/01/25 10:10:11;;;;;;;21.10;12.50;;;4.00;90.20;;;4.11;72.98;99305.03;5076783;28;20048;-85
2021/01/25 10:12:38;;;;;;;25.55;13.80;;;4.00;89.70;;;4.14;73.10;99311.97;5067463;28;20123;-85
2021/01/25 10:15:07;;;;;;;25.98;14.13;;;4.00;89.40;;;4.10;73.25;99314.97;5057047;28;20069;-85
2021/01/25 10:17:34;;;;;;;25.10;14.57;;;4.00;89.80;;;4.13;73.73;99319.16;5069557;28;20044;-87
2021/01/25 10:20:03;;;;;;;24.70;13.63;;;4.00;90.00;;;4.19;73.03;99323.03;5069905;28;20462;-86
2021/01/25 10:22:30;;;;;;;24.65;14.07;;;4.10;90.10;;;4.18;73.18;99338.34;5071383;28;20504;-86
2021/01/25 10:24:56;;;;;;;23.33;13.43;;;4.00;89.50;;;4.19;72.90;99329.28;5071392;28;20064;-86
2021/01/25 10:27:24;;;;;;;22.00;12.65;;;4.10;89.50;;;4.18;73.75;99334.81;5071167;28;20369;-87
2021/01/25 10:29:54;;;;;;;24.73;13.82;;;4.10;89.90;;;4.21;73.43;99334.50;5071752;28;20382;-89
2021/01/25 10:32:21;;;;;;;21.42;13.02;;;4.10;89.70;;;4.19;73.58;99341.88;5072105;28;20045;-86